Time;durP1;ratioP1;P1;durP2;ratioP2;P2;SDS_P1;SDS_P2;PMS_P1;PMS_P2;Temp;Humidity;BMP_temperature;BMP_pressure;BME280_temperature;BME280_humidity;BME280_pressure;Samples;Min_cycle;Max_cycle;Signal;HPM_P1;HPM_P2
2023/07/09 00:01:14;;;;;;;;;;;;;;;;;;5111634;28;19908;-67
2023/07/09 00:03:40;;;;;;;;;;;;;;;;;;5111989;28;19912;-67
2023/07/09 00:06:41;;;;;;;;;;;;;;;;;;5091954;27;19930;-68
2023/07/09 00:09:07;;;;;;;;;;;;;;;;;;5091389;28;20003;-67
2023/07/09 00:12:39;;;;;;;;;;;;;;;;;;5111779;27;19922;-67
2023/07/09 00:19:37;;;;;;;;;;;;;;;;;;5091346;28;19916;-68
2023/07/09 00:22:03;;;;;;;;;;;;;;;;;;5090355;28;19912;-67
2023/07/09 00:25:46;;;;;;;;;;;;;;;;;;5111874;27;19922;-68
2023/07/09 00:28:12;;;;;;;;;;;;;;;;;;5110461;28;20007;-67
2023/07/09 00:30:38;;;;;;;;;;;;;;;;;;5111985;28;19961;-67
2023/07/09 00:33:48;;;;;;;;;;;;;;;;;;5111773;27;19922;-67
2023/07/09 00:36:14;;;;;;;;;;;;;;;;;;5111730;28;20310;-67
2023/07/09 00:39:41;;;;;;;;;;;;;;;;;;5111725;27;19916;-67
2023/07/09 00:42:21;;;;;;;;;;;;;;;;;;5112783;27;19916;-67
2023/07/09 00:46:02;;;;;;;;;;;;;;;;;;5112556;27;20344;-67
2023/07/09 00:50:59;;;;;;;;;;;;;;;;;;5091484;27;19916;-67
2023/07/09 00:53:25;;;;;;;;;;;;;;;;;;5091647;28;20344;-69
2023/07/09 00:55:51;;;;;;;;;;;;;;;;;;5090968;28;19915;-67
2023/07/09 00:58:17;;;;;;;;;;;;;;;;;;5090000;28;19999;-67
2023/07/09 01:00:46;;;;;;;;;;;;;;;;;;5089563;28;19935;-67
2023/07/09 01:03:12;;;;;;;;;;;;;;;;;;5091249;28;19916;-67
2023/07/09 01:05:38;;;;;;;;;;;;;;;;;;5091131;28;19908;-67
2023/07/09 01:08:53;;;;;;;;;;;;;;;;;;5111576;27;20398;-68
2023/07/09 01:18:10;;;;;;;;;;;;;;;;;;5111886;27;19922;-67
2023/07/09 01:24:54;;;;;;;;;;;;;;;;;;5091933;27;19917;-67
2023/07/09 01:28:20;;;;;;;;;;;;;;;;;;5112535;27;19916;-67
2023/07/09 01:30:49;;;;;;;;;;;;;;;;;;5111395;28;20006;-66
2023/07/09 01:33:15;;;;;;;;;;;;;;;;;;5111773;28;19909;-66
2023/07/09 01:35:42;;;;;;;;;;;;;;;;;;5110321;28;19915;-67
2023/07/09 01:38:08;;;;;;;;;;;;;;;;;;5111596;28;19908;-67
2023/07/09 01:40:35;;;;;;;;;;;;;;;;;;5111529;28;19908;-67
2023/07/09 01:43:01;;;;;;;;;;;;;;;;;;5111412;28;19915;-67
2023/07/09 01:46:01;;;;;;;;;;;;;;;;;;5091740;27;19923;-68
2023/07/09 01:48:27;;;;;;;;;;;;;;;;;;5092624;28;19995;-68
2023/07/09 01:53:13;;;;;;;;;;;;;;;;;;5092939;27;19923;-67
2023/07/09 01:55:39;;;;;;;;;;;;;;;;;;5091405;28;20007;-67
2023/07/09 01:58:06;;;;;;;;;;;;;;;;;;5089663;28;19908;-67
2023/07/09 02:02:25;;;;;;;;;;;;;;;;;;5093736;27;19917;-66
2023/07/09 02:04:51;;;;;;;;;;;;;;;;;;5093805;28;20483;-67
2023/07/09 02:07:17;;;;;;;;;;;;;;;;;;5093439;28;19909;-67
2023/07/09 02:15:43;;;;;;;;;;;;;;;;;;5093969;27;20283;-66
2023/07/09 02:22:11;;;;;;;;;;;;;;;;;;5113595;27;19923;-66
2023/07/09 02:24:55;;;;;;;;;;;;;;;;;;5152773;27;20018;-66
2023/07/09 02:27:21;;;;;;;;;;;;;;;;;;5152954;27;19912;-66
2023/07/09 02:32:15;;;;;;;;;;;;;;;;;;5111871;27;19918;-67
2023/07/09 02:35:55;;;;;;;;;;;;;;;;;;5111981;27;19922;-67
2023/07/09 02:38:21;;;;;;;;;;;;;;;;;;5110532;28;19994;-67
2023/07/09 02:43:46;;;;;;;;;;;;;;;;;;5091886;27;20307;-66
2023/07/09 02:46:12;;;;;;;;;;;;;;;;;;5089807;28;20002;-66
2023/07/09 02:51:48;;;;;;;;;;;;;;;;;;5092318;27;19924;-67
2023/07/09 02:55:34;;;;;;;;;;;;;;;;;;5091795;27;20307;-68
2023/07/09 02:58:00;;;;;;;;;;;;;;;;;;5091541;28;19999;-67
2023/07/09 03:02:28;;;;;;;;;;;;;;;;;;5091433;27;20425;-67
2023/07/09 03:07:56;;;;;;;;;;;;;;;;;;5111769;27;20476;-66
2023/07/09 03:10:22;;;;;;;;;;;;;;;;;;5093535;28;19979;-67
2023/07/09 03:13:13;;;;;;;;;;;;;;;;;;5091917;28;19919;-67
2023/07/09 03:15:38;;;;;;;;;;;;;;;;;;5090991;28;20003;-67
2023/07/09 03:21:24;;;;;;;;;;;;;;;;;;5131989;27;20006;-66
2023/07/09 03:23:50;;;;;;;;;;;;;;;;;;5132282;28;19965;-67
2023/07/09 03:26:36;;;;;;;;;;;;;;;;;;5112249;27;19916;-67
2023/07/09 03:29:02;;;;;;;;;;;;;;;;;;5110135;28;19963;-67
2023/07/09 03:31:28;;;;;;;;;;;;;;;;;;5111750;28;19908;-67
2023/07/09 03:33:54;;;;;;;;;;;;;;;;;;5110434;28;19908;-67
2023/07/09 03:36:20;;;;;;;;;;;;;;;;;;5111287;28;19915;-67
2023/07/09 03:39:22;;;;;;;;;;;;;;;;;;5091556;27;19938;-69
2023/07/09 03:44:38;;;;;;;;;;;;;;;;;;5111743;27;19916;-67
2023/07/09 03:47:04;;;;;;;;;;;;;;;;;;5111727;28;20015;-67
2023/07/09 03:50:49;;;;;;;;;;;;;;;;;;5111640;27;20410;-66
2023/07/09 03:53:15;;;;;;;;;;;;;;;;;;5111752;28;20441;-68
2023/07/09 03:57:06;;;;;;;;;;;;;;;;;;5091181;27;19916;-67
2023/07/09 03:59:32;;;;;;;;;;;;;;;;;;5090068;28;19912;-68
2023/07/09 04:03:36;;;;;;;;;;;;;;;;;;5091080;27;19912;-67
2023/07/09 04:09:25;;;;;;;;;;;;;;;;;;5111792;27;20012;-67
2023/07/09 04:11:51;;;;;;;;;;;;;;;;;;5111462;28;19962;-67
2023/07/09 04:14:17;;;;;;;;;;;;;;;;;;5111718;28;19914;-67
2023/07/09 04:16:43;;;;;;;;;;;;;;;;;;5093398;28;20330;-67
2023/07/09 04:19:08;;;;;;;;;;;;;;;;;;5093011;28;19999;-67
2023/07/09 04:22:42;;;;;;;;;;;;;;;;;;5092212;27;19916;-67
2023/07/09 04:28:44;;;;;;;;;;;;;;;;;;5091671;27;19912;-67
2023/07/09 04:31:11;;;;;;;;;;;;;;;;;;5090199;28;19999;-68
2023/07/09 04:35:15;;;;;;;;;;;;;;;;;;5132677;27;19912;-67
2023/07/09 04:39:34;;;;;;;;;;;;;;;;;;5111516;27;19916;-69
2023/07/09 04:44:11;;;;;;;;;;;;;;;;;;5071765;28;20426;-67
2023/07/09 04:46:37;;;;;;;;;;;;;;;;;;5070751;28;20012;-67
2023/07/09 04:49:03;;;;;;;;;;;;;;;;;;5071171;28;20273;-67
2023/07/09 04:51:29;;;;;;;;;;;;;;;;;;5071128;28;19908;-67
2023/07/09 04:53:55;;;;;;;;;;;;;;;;;;5070582;28;19908;-67
2023/07/09 04:57:49;;;;;;;;;;;;;;;;;;5112306;27;19916;-67
2023/07/09 05:00:15;;;;;;;;;;;;;;;;;;5110110;28;20002;-67
2023/07/09 05:02:41;;;;;;;;;;;;;;;;;;5111739;28;20352;-67
2023/07/09 05:05:07;;;;;;;;;;;;;;;;;;5111679;28;19908;-67
2023/07/09 05:07:33;;;;;;;;;;;;;;;;;;5109914;28;20378;-67
2023/07/09 05:09:58;;;;;;;;;;;;;;;;;;5111586;28;19912;-67
2023/07/09 05:13:38;;;;;;;;;;;;;;;;;;5092234;27;19916;-67
2023/07/09 05:16:04;;;;;;;;;;;;;;;;;;5091015;28;20317;-67
2023/07/09 05:20:34;;;;;;;;;;;;;;;;;;5112248;27;20388;-69
2023/07/09 05:28:25;;;;;;;;;;;;;;;;;;5111820;27;20260;-67
2023/07/09 05:30:51;;;;;;;;;;;;;;;;;;5111779;28;20002;-67
2023/07/09 05:33:17;;;;;;;;;;;;;;;;;;5111631;28;19915;-67
2023/07/09 05:35:43;;;;;;;;;;;;;;;;;;5111272;28;19919;-67
2023/07/09 05:38:09;;;;;;;;;;;;;;;;;;5112124;28;19908;-67
2023/07/09 05:40:35;;;;;;;;;;;;;;;;;;5110339;28;19969;-68
2023/07/09 05:44:01;;;;;;;;;;;;;;;;;;5111499;27;19926;-69
2023/07/09 05:48:02;;;;;;;;;;;;;;;;;;5112232;27;19922;-68
2023/07/09 05:53:51;;;;;;;;;;;;;;;;;;5091852;28;19923;-69
2023/07/09 05:56:17;;;;;;;;;;;;;;;;;;5089738;28;19995;-67
2023/07/09 05:58:43;;;;;;;;;;;;;;;;;;5091356;28;20364;-67
2023/07/09 06:04:39;;;;;;;;;;;;;;;;;;5152756;27;19918;-68
2023/07/09 06:08:05;;;;;;;;;;;;;;;;;;5091678;27;19916;-67
2023/07/09 06:14:14;;;;;;;;;;;;;;;;;;5091802;28;19917;-68
2023/07/09 06:16:39;;;;;;;;;;;;;;;;;;5091480;28;20397;-68
2023/07/09 06:20:57;;;;;;;;;;;;;;;;;;5112548;27;20371;-67
2023/07/09 06:23:23;;;;;;;;;;;;;;;;;;5110556;28;19918;-68
2023/07/09 06:27:07;;;;;;;;;;;;;;;;;;5112117;27;20417;-69
2023/07/09 06:30:02;;;;;;;;;;;;;;;;;;5112241;27;19922;-67
2023/07/09 06:32:28;;;;;;;;;;;;;;;;;;5110122;28;19912;-67
2023/07/09 06:34:54;;;;;;;;;;;;;;;;;;5111699;28;20001;-67
2023/07/09 06:37:19;;;;;;;;;;;;;;;;;;5110408;28;19908;-67
2023/07/09 06:41:54;;;;;;;;;;;;;;;;;;5112269;27;19922;-68
2023/07/09 06:44:20;;;;;;;;;;;;;;;;;;5111784;28;19912;-68
2023/07/09 06:48:08;;;;;;;;;;;;;;;;;;5112123;27;19916;-69
2023/07/09 06:51:38;;;;;;;;;;;;;;;;;;5112001;27;19922;-69
2023/07/09 06:54:05;;;;;;;;;;;;;;;;;;5110097;28;20007;-68
2023/07/09 06:58:27;;;;;;;;;;;;;;;;;;5091857;28;19918;-67
2023/07/09 07:00:53;;;;;;;;;;;;;;;;;;5089840;28;20032;-67
2023/07/09 07:04:42;;;;;;;;;;;;;;;;;;5153813;27;19907;-67
2023/07/09 07:07:09;;;;;;;;;;;;;;;;;;5152497;27;19915;-67
2023/07/09 07:09:35;;;;;;;;;;;;;;;;;;5134460;27;19907;-67
2023/07/09 07:14:17;;;;;;;;;;;;;;;;;;5091466;27;19923;-68
2023/07/09 07:17:56;;;;;;;;;;;;;;;;;;5112203;27;19916;-69
2023/07/09 07:21:28;;;;;;;;;;;;;;;;;;5111653;27;19918;-67
2023/07/09 07:23:54;;;;;;;;;;;;;;;;;;5110500;28;20007;-67
2023/07/09 07:26:20;;;;;;;;;;;;;;;;;;5111730;28;19930;-67
2023/07/09 07:32:17;;;;;;;;;;;;;;;;;;5112260;27;19922;-66
2023/07/09 07:34:43;;;;;;;;;;;;;;;;;;5111379;28;20002;-67
2023/07/09 07:38:01;;;;;;;;;;;;;;;;;;5112708;27;19916;-68
2023/07/09 07:41:41;;;;;;;;;;;;;;;;;;5111525;27;20651;-68
2023/07/09 07:48:15;;;;;;;;;;;;;;;;;;5112081;27;19916;-68
2023/07/09 07:50:41;;;;;;;;;;;;;;;;;;5111287;28;19999;-68
2023/07/09 07:53:10;;;;;;;;;;;;;;;;;;5110427;28;19908;-68
2023/07/09 07:57:02;;;;;;;;;;;;;;;;;;5111549;27;20287;-68
2023/07/09 07:59:27;;;;;;;;;;;;;;;;;;5110412;28;20003;-68
2023/07/09 08:02:46;;;;;;;;;;;;;;;;;;5111726;27;19916;-69
2023/07/09 08:07:23;;;;;;;;;;;;;;;;;;5112307;27;19918;-67
2023/07/09 08:09:49;;;;;;;;;;;;;;;;;;5111389;28;20007;-67
2023/07/09 08:12:15;;;;;;;;;;;;;;;;;;5111861;28;19961;-68
2023/07/09 08:14:41;;;;;;;;;;;;;;;;;;5111717;28;19912;-68
2023/07/09 08:17:07;;;;;;;;;;;;;;;;;;5110094;28;19945;-68
2023/07/09 08:19:33;;;;;;;;;;;;;;;;;;5110297;28;19922;-68
2023/07/09 08:23:09;;;;;;;;;;;;;;;;;;5112595;27;19915;-68
2023/07/09 08:25:35;;;;;;;;;;;;;;;;;;5111387;28;20332;-68
2023/07/09 08:28:01;;;;;;;;;;;;;;;;;;5111748;28;19961;-68
2023/07/09 08:30:27;;;;;;;;;;;;;;;;;;5110429;28;19908;-68
2023/07/09 08:35:26;;;;;;;;;;;;;;;;;;5112171;27;19922;-68
2023/07/09 08:38:19;;;;;;;;;;;;;;;;;;5153025;27;19923;-67
2023/07/09 08:40:46;;;;;;;;;;;;;;;;;;5153267;27;19950;-68
2023/07/09 08:43:11;;;;;;;;;;;;;;;;;;5152931;27;19908;-68
2023/07/09 08:45:37;;;;;;;;;;;;;;;;;;5133998;27;19914;-68
2023/07/09 08:48:04;;;;;;;;;;;;;;;;;;5153007;27;19914;-68
2023/07/09 08:52:06;;;;;;;;;;;;;;;;;;5111456;27;19912;-68
2023/07/09 08:54:32;;;;;;;;;;;;;;;;;;5111834;28;20447;-68
2023/07/09 08:56:58;;;;;;;;;;;;;;;;;;5111678;28;19908;-68
2023/07/09 08:59:24;;;;;;;;;;;;;;;;;;5111493;28;19912;-68
2023/07/09 09:01:50;;;;;;;;;;;;;;;;;;5110340;28;19912;-68
2023/07/09 09:04:16;;;;;;;;;;;;;;;;;;5110287;28;19955;-68
2023/07/09 09:06:42;;;;;;;;;;;;;;;;;;5109866;28;20309;-67
2023/07/09 09:09:08;;;;;;;;;;;;;;;;;;5111387;28;19908;-68
2023/07/09 09:11:34;;;;;;;;;;;;;;;;;;5111284;28;20399;-67
2023/07/09 09:14:00;;;;;;;;;;;;;;;;;;5111025;28;19908;-67
2023/07/09 09:16:26;;;;;;;;;;;;;;;;;;5111376;28;19958;-68
2023/07/09 09:18:52;;;;;;;;;;;;;;;;;;5111317;28;19916;-68
2023/07/09 09:21:18;;;;;;;;;;;;;;;;;;5110884;28;20006;-67
2023/07/09 09:24:11;;;;;;;;;;;;;;;;;;5132631;27;19916;-67
2023/07/09 09:26:37;;;;;;;;;;;;;;;;;;5132248;28;19991;-67
2023/07/09 09:29:03;;;;;;;;;;;;;;;;;;5130539;28;19908;-67
2023/07/09 09:31:29;;;;;;;;;;;;;;;;;;5130845;28;19956;-68
2023/07/09 09:33:55;;;;;;;;;;;;;;;;;;5131746;28;19908;-67
2023/07/09 09:37:14;;;;;;;;;;;;;;;;;;5111722;27;19916;-67
2023/07/09 09:39:40;;;;;;;;;;;;;;;;;;5111696;28;19998;-67
2023/07/09 09:42:06;;;;;;;;;;;;;;;;;;5109895;28;19930;-67
2023/07/09 09:44:33;;;;;;;;;;;;;;;;;;5110367;28;19908;-69
2023/07/09 09:46:59;;;;;;;;;;;;;;;;;;5111594;28;19908;-68
2023/07/09 09:49:25;;;;;;;;;;;;;;;;;;5111148;28;20374;-67
2023/07/09 09:51:51;;;;;;;;;;;;;;;;;;5111534;28;20379;-69
2023/07/09 09:54:17;;;;;;;;;;;;;;;;;;5111765;28;19998;-69
2023/07/09 09:56:43;;;;;;;;;;;;;;;;;;5110954;28;20061;-67
2023/07/09 10:00:55;;;;;;;;;;;;;;;;;;5091625;27;19912;-68
2023/07/09 10:03:21;;;;;;;;;;;;;;;;;;5089819;28;19919;-67
2023/07/09 10:05:47;;;;;;;;;;;;;;;;;;5090002;28;20245;-67
2023/07/09 10:08:13;;;;;;;;;;;;;;;;;;5091414;28;19908;-67
2023/07/09 10:10:39;;;;;;;;;;;;;;;;;;5090879;28;20010;-67
2023/07/09 10:13:05;;;;;;;;;;;;;;;;;;5091296;28;19919;-67
2023/07/09 10:15:31;;;;;;;;;;;;;;;;;;5091415;28;19908;-67
2023/07/09 10:17:57;;;;;;;;;;;;;;;;;;5089468;28;20046;-67
2023/07/09 10:20:23;;;;;;;;;;;;;;;;;;5091287;28;19916;-67
2023/07/09 10:22:49;;;;;;;;;;;;;;;;;;5091024;28;19909;-67
2023/07/09 10:25:15;;;;;;;;;;;;;;;;;;5089366;28;19955;-68
2023/07/09 10:27:41;;;;;;;;;;;;;;;;;;5089647;28;19915;-68
2023/07/09 10:30:06;;;;;;;;;;;;;;;;;;5089450;28;19940;-67
2023/07/09 10:32:32;;;;;;;;;;;;;;;;;;5090720;28;19913;-67
2023/07/09 10:34:58;;;;;;;;;;;;;;;;;;5090782;28;19909;-67
2023/07/09 10:37:24;;;;;;;;;;;;;;;;;;5090348;28;20003;-67
2023/07/09 10:39:50;;;;;;;;;;;;;;;;;;5090597;28;19917;-68
2023/07/09 10:42:16;;;;;;;;;;;;;;;;;;5090673;28;19954;-67
2023/07/09 10:44:42;;;;;;;;;;;;;;;;;;5090456;28;19947;-67
2023/07/09 10:47:08;;;;;;;;;;;;;;;;;;5090608;28;19909;-67
2023/07/09 10:49:35;;;;;;;;;;;;;;;;;;5089257;28;19910;-67
2023/07/09 10:52:01;;;;;;;;;;;;;;;;;;5090064;28;19908;-67
2023/07/09 10:54:27;;;;;;;;;;;;;;;;;;5090459;28;19909;-67
2023/07/09 10:56:53;;;;;;;;;;;;;;;;;;5089100;28;19908;-68
2023/07/09 10:59:19;;;;;;;;;;;;;;;;;;5088569;28;19959;-68
2023/07/09 11:01:45;;;;;;;;;;;;;;;;;;5088954;28;19912;-68
2023/07/09 11:04:11;;;;;;;;;;;;;;;;;;5090261;28;19915;-68
2023/07/09 11:06:38;;;;;;;;;;;;;;;;;;5089831;28;19908;-68
2023/07/09 11:09:04;;;;;;;;;;;;;;;;;;5090201;28;19915;-68
2023/07/09 11:11:30;;;;;;;;;;;;;;;;;;5080997;28;19908;-68
2023/07/09 11:13:57;;;;;;;;;;;;;;;;;;5074737;28;19916;-68
2023/07/09 11:16:23;;;;;;;;;;;;;;;;;;5075296;28;19908;-68
2023/07/09 11:18:48;;;;;;;;;;;;;;;;;;5076348;28;19982;-68
2023/07/09 11:21:14;;;;;;;;;;;;;;;;;;5076037;28;19921;-68
2023/07/09 11:23:40;;;;;;;;;;;;;;;;;;5076660;28;19908;-68
2023/07/09 11:26:06;;;;;;;;;;;;;;;;;;5076320;28;20023;-68
2023/07/09 11:28:32;;;;;;;;;;;;;;;;;;5075984;28;19999;-67
2023/07/09 11:30:58;;;;;;;;;;;;;;;;;;5076194;28;19915;-67
2023/07/09 11:33:24;;;;;;;;;;;;;;;;;;5074612;28;20101;-68
2023/07/09 11:35:51;;;;;;;;;;;;;;;;;;5076148;28;20383;-67
2023/07/09 11:38:17;;;;;;;;;;;;;;;;;;5076291;28;19908;-69
2023/07/09 11:40:43;;;;;;;;;;;;;;;;;;5075576;28;19918;-69
2023/07/09 11:43:08;;;;;;;;;;;;;;;;;;5076178;28;19916;-68
2023/07/09 11:45:34;;;;;;;;;;;;;;;;;;5076344;28;20295;-69
2023/07/09 11:48:03;;;;;;;;;;;;;;;;;;5074292;28;20277;-68
2023/07/09 11:50:29;;;;;;;;;;;;;;;;;;5075970;28;20003;-68
2023/07/09 11:52:55;;;;;;;;;;;;;;;;;;5074587;28;20376;-69
2023/07/09 11:55:22;;;;;;;;;;;;;;;;;;5074250;28;19915;-68
2023/07/09 11:57:48;;;;;;;;;;;;;;;;;;5074588;28;19987;-68
2023/07/09 12:00:14;;;;;;;;;;;;;;;;;;5090711;28;19924;-69
2023/07/09 12:02:40;;;;;;;;;;;;;;;;;;5077414;28;19914;-68
2023/07/09 12:05:06;;;;;;;;;;;;;;;;;;5095863;28;19944;-68
2023/07/09 12:07:32;;;;;;;;;;;;;;;;;;5077733;28;19912;-68
2023/07/09 12:09:58;;;;;;;;;;;;;;;;;;5095704;28;20280;-68
2023/07/09 12:12:24;;;;;;;;;;;;;;;;;;5095792;28;19909;-68
2023/07/09 12:14:50;;;;;;;;;;;;;;;;;;5095738;28;19912;-69
2023/07/09 12:17:16;;;;;;;;;;;;;;;;;;5095309;28;20414;-68
2023/07/09 12:19:42;;;;;;;;;;;;;;;;;;5077424;28;19942;-68
2023/07/09 12:22:08;;;;;;;;;;;;;;;;;;5094794;28;19908;-68
2023/07/09 12:24:34;;;;;;;;;;;;;;;;;;5094856;28;20009;-68
2023/07/09 12:27:00;;;;;;;;;;;;;;;;;;5077262;28;19908;-68
2023/07/09 12:29:26;;;;;;;;;;;;;;;;;;5095420;28;19915;-68
2023/07/09 12:31:52;;;;;;;;;;;;;;;;;;5076773;28;19955;-68
2023/07/09 12:34:18;;;;;;;;;;;;;;;;;;5095313;28;20356;-68
2023/07/09 12:36:44;;;;;;;;;;;;;;;;;;5076677;28;19915;-67
2023/07/09 12:39:11;;;;;;;;;;;;;;;;;;5076996;28;19916;-68
2023/07/09 12:41:38;;;;;;;;;;;;;;;;;;5095197;28;19908;-68
2023/07/09 12:44:04;;;;;;;;;;;;;;;;;;5094639;28;19912;-68
2023/07/09 12:46:30;;;;;;;;;;;;;;;;;;5095125;28;19909;-68
2023/07/09 12:48:56;;;;;;;;;;;;;;;;;;5095015;28;19908;-68
2023/07/09 12:51:24;;;;;;;;;;;;;;;;;;5094553;28;19915;-68
2023/07/09 12:53:50;;;;;;;;;;;;;;;;;;5094952;28;20291;-67
2023/07/09 12:56:16;;;;;;;;;;;;;;;;;;5095136;28;19908;-68
2023/07/09 12:58:43;;;;;;;;;;;;;;;;;;5075994;28;19947;-68
2023/07/09 13:01:10;;;;;;;;;;;;;;;;;;5094801;28;19908;-68
2023/07/09 13:03:36;;;;;;;;;;;;;;;;;;5094735;28;20353;-68
2023/07/09 13:06:03;;;;;;;;;;;;;;;;;;5076215;28;19908;-68
2023/07/09 13:08:29;;;;;;;;;;;;;;;;;;5094645;28;19908;-68
2023/07/09 13:10:56;;;;;;;;;;;;;;;;;;5076453;28;20002;-68
2023/07/09 13:13:21;;;;;;;;;;;;;;;;;;5075986;28;19908;-68
2023/07/09 13:15:48;;;;;;;;;;;;;;;;;;5094540;28;19914;-68
2023/07/09 13:18:14;;;;;;;;;;;;;;;;;;5076309;28;19908;-68
2023/07/09 13:20:40;;;;;;;;;;;;;;;;;;5094047;28;19969;-68
2023/07/09 13:23:06;;;;;;;;;;;;;;;;;;5076169;28;19915;-68
2023/07/09 13:25:32;;;;;;;;;;;;;;;;;;5094341;28;19973;-68
2023/07/09 13:27:58;;;;;;;;;;;;;;;;;;5093940;28;19908;-68
2023/07/09 13:30:24;;;;;;;;;;;;;;;;;;5094263;28;19908;-68
2023/07/09 13:32:50;;;;;;;;;;;;;;;;;;5094262;28;19908;-68
2023/07/09 13:35:16;;;;;;;;;;;;;;;;;;5075454;28;19912;-68
2023/07/09 13:37:42;;;;;;;;;;;;;;;;;;5094310;28;19908;-68
2023/07/09 13:40:08;;;;;;;;;;;;;;;;;;5075619;28;19916;-68
2023/07/09 13:42:34;;;;;;;;;;;;;;;;;;5076219;28;19916;-69
2023/07/09 13:45:00;;;;;;;;;;;;;;;;;;5094110;28;19974;-69
2023/07/09 13:47:26;;;;;;;;;;;;;;;;;;5093678;28;19952;-68
2023/07/09 13:49:52;;;;;;;;;;;;;;;;;;5094027;28;19908;-67
2023/07/09 13:52:18;;;;;;;;;;;;;;;;;;5093902;28;19995;-69
2023/07/09 13:54:47;;;;;;;;;;;;;;;;;;5075673;28;19909;-69
2023/07/09 13:57:13;;;;;;;;;;;;;;;;;;5093939;28;19915;-69
2023/07/09 13:59:39;;;;;;;;;;;;;;;;;;5093825;28;19920;-68
2023/07/09 14:02:05;;;;;;;;;;;;;;;;;;5093631;28;19912;-69
2023/07/09 14:04:31;;;;;;;;;;;;;;;;;;5094040;28;19993;-68
2023/07/09 14:06:57;;;;;;;;;;;;;;;;;;5075810;28;19910;-68
2023/07/09 14:09:24;;;;;;;;;;;;;;;;;;5093507;28;19923;-68
2023/07/09 14:11:49;;;;;;;;;;;;;;;;;;5093817;28;19908;-68
2023/07/09 14:14:15;;;;;;;;;;;;;;;;;;5075751;28;20352;-68
2023/07/09 14:16:41;;;;;;;;;;;;;;;;;;5075207;28;19962;-68
2023/07/09 14:19:07;;;;;;;;;;;;;;;;;;5075573;28;19986;-68
2023/07/09 14:21:33;;;;;;;;;;;;;;;;;;5093762;28;19944;-67
2023/07/09 14:23:59;;;;;;;;;;;;;;;;;;5093353;28;19915;-68
2023/07/09 14:26:25;;;;;;;;;;;;;;;;;;5093739;28;19953;-67
2023/07/09 14:28:51;;;;;;;;;;;;;;;;;;5093738;28;20330;-68
2023/07/09 14:31:17;;;;;;;;;;;;;;;;;;5093268;28;20430;-68
2023/07/09 14:33:43;;;;;;;;;;;;;;;;;;5093598;28;19912;-67
2023/07/09 14:36:09;;;;;;;;;;;;;;;;;;5075453;28;19908;-67
2023/07/09 14:38:35;;;;;;;;;;;;;;;;;;5093152;28;20261;-67
2023/07/09 14:41:01;;;;;;;;;;;;;;;;;;5093609;28;20002;-67
2023/07/09 14:43:27;;;;;;;;;;;;;;;;;;5074986;28;20409;-68
2023/07/09 14:45:53;;;;;;;;;;;;;;;;;;5094821;28;20387;-67
2023/07/09 14:48:19;;;;;;;;;;;;;;;;;;5079177;28;20432;-68
2023/07/09 14:50:45;;;;;;;;;;;;;;;;;;5078933;28;19912;-67
2023/07/09 14:53:11;;;;;;;;;;;;;;;;;;5097307;28;20383;-67
2023/07/09 14:55:37;;;;;;;;;;;;;;;;;;5097166;28;20279;-68
2023/07/09 14:58:05;;;;;;;;;;;;;;;;;;5078465;28;20288;-69
2023/07/09 15:00:31;;;;;;;;;;;;;;;;;;5096814;28;20402;-69
2023/07/09 15:02:57;;;;;;;;;;;;;;;;;;5078926;28;19951;-68
2023/07/09 15:05:23;;;;;;;;;;;;;;;;;;5078539;28;19908;-69
2023/07/09 15:07:49;;;;;;;;;;;;;;;;;;5097312;28;20362;-68
2023/07/09 15:10:15;;;;;;;;;;;;;;;;;;5096967;28;19955;-68
2023/07/09 15:12:41;;;;;;;;;;;;;;;;;;5096997;28;20415;-68
2023/07/09 15:15:07;;;;;;;;;;;;;;;;;;5096833;28;19908;-67
2023/07/09 15:17:33;;;;;;;;;;;;;;;;;;5078694;28;19914;-67
2023/07/09 15:19:59;;;;;;;;;;;;;;;;;;5096254;28;19916;-68
2023/07/09 15:22:25;;;;;;;;;;;;;;;;;;5096764;28;19966;-68
2023/07/09 15:24:51;;;;;;;;;;;;;;;;;;5096708;28;19916;-67
2023/07/09 15:27:17;;;;;;;;;;;;;;;;;;5096389;28;19962;-69
2023/07/09 15:29:43;;;;;;;;;;;;;;;;;;5096806;28;20284;-70
2023/07/09 15:32:09;;;;;;;;;;;;;;;;;;5078380;28;20373;-68
2023/07/09 15:34:35;;;;;;;;;;;;;;;;;;5078432;28;20256;-69
2023/07/09 15:37:02;;;;;;;;;;;;;;;;;;5096713;28;19958;-68
2023/07/09 15:39:28;;;;;;;;;;;;;;;;;;5078123;28;20378;-68
2023/07/09 15:41:54;;;;;;;;;;;;;;;;;;5095981;28;19908;-69
2023/07/09 15:44:20;;;;;;;;;;;;;;;;;;5096625;28;19908;-68
2023/07/09 15:46:45;;;;;;;;;;;;;;;;;;5096270;28;19915;-68
2023/07/09 15:49:12;;;;;;;;;;;;;;;;;;5095796;28;19908;-68
2023/07/09 15:51:38;;;;;;;;;;;;;;;;;;5096167;28;19916;-68
2023/07/09 15:54:04;;;;;;;;;;;;;;;;;;5096071;28;19908;-69
2023/07/09 15:56:32;;;;;;;;;;;;;;;;;;5077817;28;19908;-68
2023/07/09 15:58:59;;;;;;;;;;;;;;;;;;5077644;28;19920;-67
2023/07/09 16:01:24;;;;;;;;;;;;;;;;;;5095630;28;19912;-69
2023/07/09 16:03:50;;;;;;;;;;;;;;;;;;5096348;28;20306;-68
2023/07/09 16:06:16;;;;;;;;;;;;;;;;;;5095898;28;19908;-68
2023/07/09 16:08:42;;;;;;;;;;;;;;;;;;5077276;28;19913;-69
2023/07/09 16:11:08;;;;;;;;;;;;;;;;;;5095858;28;19954;-67
2023/07/09 16:13:34;;;;;;;;;;;;;;;;;;5077617;28;20364;-67
2023/07/09 16:16:00;;;;;;;;;;;;;;;;;;5095305;28;20363;-69
2023/07/09 16:18:26;;;;;;;;;;;;;;;;;;5095665;28;20356;-69
2023/07/09 16:20:52;;;;;;;;;;;;;;;;;;5095564;28;20119;-67
2023/07/09 16:23:18;;;;;;;;;;;;;;;;;;5095176;28;19909;-67
2023/07/09 16:25:44;;;;;;;;;;;;;;;;;;5095452;28;19908;-67
2023/07/09 16:28:10;;;;;;;;;;;;;;;;;;5077612;28;20313;-68
2023/07/09 16:30:36;;;;;;;;;;;;;;;;;;5095154;28;19995;-68
2023/07/09 16:33:02;;;;;;;;;;;;;;;;;;5095414;28;19908;-68
2023/07/09 16:35:28;;;;;;;;;;;;;;;;;;5077091;28;19908;-69
2023/07/09 16:37:54;;;;;;;;;;;;;;;;;;5076649;28;19954;-68
2023/07/09 16:40:20;;;;;;;;;;;;;;;;;;5095159;28;19916;-68
2023/07/09 16:42:46;;;;;;;;;;;;;;;;;;5095156;28;19954;-67
2023/07/09 16:45:12;;;;;;;;;;;;;;;;;;5095851;28;19914;-68
2023/07/09 16:47:38;;;;;;;;;;;;;;;;;;5097101;28;19909;-67
2023/07/09 16:50:04;;;;;;;;;;;;;;;;;;5078985;28;19908;-67
2023/07/09 16:52:30;;;;;;;;;;;;;;;;;;5097033;28;19929;-68
2023/07/09 16:54:57;;;;;;;;;;;;;;;;;;5078805;28;19908;-68
2023/07/09 16:57:25;;;;;;;;;;;;;;;;;;5078640;28;19999;-67
2023/07/09 16:59:51;;;;;;;;;;;;;;;;;;5079192;28;20011;-68
2023/07/09 17:02:17;;;;;;;;;;;;;;;;;;5098432;28;20355;-68
2023/07/09 17:04:42;;;;;;;;;;;;;;;;;;5097620;28;19908;-68
2023/07/09 17:07:08;;;;;;;;;;;;;;;;;;5097538;28;20264;-67
2023/07/09 17:09:34;;;;;;;;;;;;;;;;;;5094724;28;20441;-67
2023/07/09 17:12:00;;;;;;;;;;;;;;;;;;5076015;28;19915;-68
2023/07/09 17:14:26;;;;;;;;;;;;;;;;;;5076248;28;19979;-67
2023/07/09 17:16:52;;;;;;;;;;;;;;;;;;5094460;28;19939;-68
2023/07/09 17:19:18;;;;;;;;;;;;;;;;;;5093990;28;19913;-68
2023/07/09 17:21:44;;;;;;;;;;;;;;;;;;5094536;28;19908;-68
2023/07/09 17:24:10;;;;;;;;;;;;;;;;;;5076360;28;19962;-69
2023/07/09 17:28:45;;;;;;;;;;;;;;;;;;5112227;27;19912;-67
2023/07/09 17:31:12;;;;;;;;;;;;;;;;;;5111999;28;19918;-68
2023/07/09 17:33:38;;;;;;;;;;;;;;;;;;5110084;28;19912;-67
2023/07/09 17:36:04;;;;;;;;;;;;;;;;;;5110478;28;20395;-68
2023/07/09 17:38:30;;;;;;;;;;;;;;;;;;5111569;28;19912;-67
2023/07/09 17:40:56;;;;;;;;;;;;;;;;;;5111210;28;19961;-67
2023/07/09 17:43:22;;;;;;;;;;;;;;;;;;5111728;28;19947;-68
2023/07/09 17:45:48;;;;;;;;;;;;;;;;;;5110226;28;19915;-68
2023/07/09 17:49:11;;;;;;;;;;;;;;;;;;5112466;27;19916;-68
2023/07/09 17:51:37;;;;;;;;;;;;;;;;;;5111994;28;19919;-67
2023/07/09 17:54:03;;;;;;;;;;;;;;;;;;5111260;28;19908;-68
2023/07/09 17:56:29;;;;;;;;;;;;;;;;;;5111681;28;19908;-68
2023/07/09 18:00:21;;;;;;;;;;;;;;;;;;5112481;27;20275;-68
2023/07/09 18:02:47;;;;;;;;;;;;;;;;;;5111311;28;20360;-68
2023/07/09 18:05:13;;;;;;;;;;;;;;;;;;5110407;28;19908;-67
2023/07/09 18:07:39;;;;;;;;;;;;;;;;;;5111256;28;19909;-68
2023/07/09 18:10:05;;;;;;;;;;;;;;;;;;5110295;28;19912;-67
2023/07/09 18:15:18;;;;;;;;;;;;;;;;;;5111873;27;20268;-67
2023/07/09 18:17:45;;;;;;;;;;;;;;;;;;5111678;28;19947;-67
2023/07/09 18:20:11;;;;;;;;;;;;;;;;;;5111636;28;19908;-68
2023/07/09 18:22:37;;;;;;;;;;;;;;;;;;5109942;28;19908;-68
2023/07/09 18:28:09;;;;;;;;;;;;;;;;;;5112434;27;19922;-68
2023/07/09 18:30:35;;;;;;;;;;;;;;;;;;5111431;28;19919;-69
2023/07/09 18:33:02;;;;;;;;;;;;;;;;;;5111625;28;19908;-67
2023/07/09 18:35:28;;;;;;;;;;;;;;;;;;5111754;28;19998;-67
2023/07/09 18:37:56;;;;;;;;;;;;;;;;;;5109865;28;19950;-67
2023/07/09 18:40:22;;;;;;;;;;;;;;;;;;5110295;28;19908;-67
2023/07/09 18:42:48;;;;;;;;;;;;;;;;;;5111121;28;19908;-67
2023/07/09 18:46:24;;;;;;;;;;;;;;;;;;5091942;28;19916;-70
2023/07/09 18:48:50;;;;;;;;;;;;;;;;;;5091381;28;20375;-67
2023/07/09 18:51:16;;;;;;;;;;;;;;;;;;5091056;28;19912;-67
2023/07/09 18:53:43;;;;;;;;;;;;;;;;;;5091267;28;19954;-67
2023/07/09 19:01:55;;;;;;;;;;;;;;;;;;5153217;27;20363;-68
2023/07/09 19:04:21;;;;;;;;;;;;;;;;;;5152540;27;19911;-68
2023/07/09 19:07:30;;;;;;;;;;;;;;;;;;5112361;27;20398;-67
2023/07/09 19:09:59;;;;;;;;;;;;;;;;;;5111798;28;20002;-69
2023/07/09 19:12:25;;;;;;;;;;;;;;;;;;5111273;28;19908;-69
2023/07/09 19:14:51;;;;;;;;;;;;;;;;;;5111677;28;19914;-69
2023/07/09 19:17:57;;;;;;;;;;;;;;;;;;5111396;27;19916;-69
2023/07/09 19:20:23;;;;;;;;;;;;;;;;;;5110454;28;20409;-69
2023/07/09 19:23:35;;;;;;;;;;;;;;;;;;5111972;27;19916;-68